Flight Track Log - Related Links

Times and Time Zones

All times are in EDT time to prevent confusion due to time zone crossing. See the AAL6 flight status page for this flight to view local times or setup timezone preferences in your user account.

Time Position Orientation Groundspeed Altitude Reporting Facility
EDT Latitude Longitude Course Direction KTS MPH feet Rate Location/Type
Thu 11:22:15 PM 20.9000 -156.3938 41° Northeast  Level FlightAware Approximate
Thu 11:23:15 PM 20.9167 -156.2513 318° Northwest  Level FlightAware Approximate
Thu 11:24:15 PM 20.9384 -156.1129 283° West  Level FlightAware Approximate
Thu 11:25:22 PM 20.9833 -156.3167 75° East 250 288 6,000  Level Honolulu Center
Thu 11:26:22 PM 21.0000 -156.2500 70° East 280 322 8,900 2,579 Climbing Honolulu Center
Thu 11:27:23 PM 21.0333 -156.1500 80° East 310 357 11,200 2,033 Climbing Honolulu Center
Thu 11:28:23 PM 21.0500 -156.0500 73° East 380 437 13,000 2,450 Climbing Honolulu Center
Thu 11:29:23 PM 21.0833 -155.9333 81° East 400 460 16,100 2,777 Climbing Honolulu Center
Thu 11:30:24 PM 21.1000 -155.8167 75° East 420 483 18,600 2,231 Climbing Honolulu Center
Thu 11:31:24 PM 21.1333 -155.6833 75° East 440 506 20,600 2,132 Climbing Honolulu Center
Thu 11:32:25 PM 21.1667 -155.5500 75° East 460 529 22,900 2,083 Climbing Honolulu Center
Thu 11:33:25 PM 21.2000 -155.4167 77° East 470 541 24,800 1,750 Climbing Honolulu Center
Thu 11:34:25 PM 21.2333 -155.2667 77° East 490 564 26,400 1,438 Climbing Honolulu Center
Thu 11:35:26 PM 21.2667 -155.1167 77° East 510 587 27,700 1,587 Climbing Honolulu Center
Thu 11:36:26 PM 21.3000 -154.9667 77° East 520 598 29,600 1,900 Climbing Honolulu Center
Thu 11:37:26 PM 21.3333 -154.8167 77° East 510 587 31,500 1,636 Climbing Honolulu Center
Thu 11:38:27 PM 21.3667 -154.6667 77° East 510 587 32,900 1,328 Climbing Honolulu Center
Thu 11:39:28 PM 21.4000 -154.5167 77° East 520 598 34,200 1,200 Climbing Honolulu Center
Thu 11:40:27 PM 21.4333 -154.3667 77° East 520 598 35,300 1,250 Climbing Honolulu Center
Thu 11:41:28 PM 21.4667 -154.2167 75° East 520 598 36,700 843 Climbing Honolulu Center
Thu 11:42:28 PM 21.5000 -154.0833 77° East 510 587 37,000 149 Climbing Honolulu Center
Thu 11:43:29 PM 21.5333 -153.9333 77° East 520 598 37,000  Level Honolulu Center
Thu 11:44:29 PM 21.5667 -153.7833 77° East 520 598 37,000  Level Honolulu Center
Thu 11:45:30 PM 21.6000 -153.6333 77° East 510 587 37,000  Level Honolulu Center
Thu 11:46:30 PM 21.6333 -153.4833 77° East 520 598 37,000  Level Honolulu Center
Thu 11:47:31 PM 21.6667 -153.3333 62° Northeast 510 587 37,000  Level Honolulu Center
Fri 12:46:39 AM 25.2833 -145.5167 65° Northeast 498 573 37,000  Level Oakland Oceanic (ODAPS)
Fri 01:32:11 AM 27.9167 -138.8500 68° East 506 582 37,000  Level Oakland Oceanic (ODAPS)
Fri 02:21:42 AM 30.2833 -131.6333 71° East 495 570 37,000  Level Oakland Oceanic (ODAPS)
Fri 03:09:54 AM 32.2544 -123.9828 74° East 457 526 37,000  Level Los Angeles Center
Fri 03:10:54 AM 32.2942 -123.8194 75° East 504 580 37,000  Level Los Angeles Center
Fri 03:11:54 AM 32.3314 -123.6556 77° East 515 593 37,000  Level Los Angeles Center
Fri 03:12:54 AM 32.3650 -123.4839 75° East 522 601 37,000  Level Los Angeles Center
Fri 03:13:54 AM 32.4017 -123.3222 74° East 521 600 37,000  Level Los Angeles Center
Fri 03:14:54 AM 32.4458 -123.1389 77° East 527 606 37,000  Level Los Angeles Center
Fri 03:15:54 AM 32.4725 -122.9983 75° East 527 606 37,000  Level Los Angeles Center
Fri 03:16:54 AM 32.5167 -122.8047 77° East 522 601 37,000  Level Los Angeles Center
Fri 03:17:54 AM 32.5489 -122.6325 74° East 527 606 37,000  Level Los Angeles Center
Fri 03:18:54 AM 32.5889 -122.4678 77° East 522 601 37,000  Level Los Angeles Center
Fri 03:19:54 AM 32.6225 -122.3003 75° East 522 601 37,000  Level Los Angeles Center
Fri 03:20:54 AM 32.6603 -122.1328 77° East 522 601 37,000  Level Los Angeles Center
Fri 03:21:54 AM 32.6933 -121.9647 76° East 527 606 37,000  Level Los Angeles Center
Fri 03:22:54 AM 32.7283 -121.7967 75° East 527 606 37,000  Level Los Angeles Center
Fri 03:23:54 AM 32.7653 -121.6286 77° East 527 606 37,000  Level Los Angeles Center
Fri 03:24:54 AM 32.7981 -121.4578 76° East 527 606 37,000  Level Los Angeles Center
Fri 03:25:54 AM 32.8344 -121.2872 76° East 528 608 37,000  Level Los Angeles Center
Fri 03:26:54 AM 32.8686 -121.1211 77° East 528 608 37,000  Level Los Angeles Center
Fri 03:27:54 AM 32.9028 -120.9450 77° East 528 608 37,000  Level Los Angeles Center
Fri 03:28:54 AM 32.9364 -120.7761 76° East 528 608 37,000  Level Los Angeles Center
Fri 03:29:54 AM 32.9722 -120.6047 77° East 528 608 37,000  Level Los Angeles Center
Fri 03:30:54 AM 33.0033 -120.4378 76° East 528 608 37,000  Level Los Angeles Center
Fri 03:31:54 AM 33.0386 -120.2636 78° East 528 608 37,000  Level Los Angeles Center
Fri 03:32:54 AM 33.0692 -120.0917 78° East 528 608 37,000  Level Los Angeles Center
Fri 03:33:54 AM 33.0947 -119.9442 77° East 522 601 37,000  Level Los Angeles Center
Fri 03:34:54 AM 33.1269 -119.7769 77° East 516 594 37,000  Level Los Angeles Center
Fri 03:35:54 AM 33.1592 -119.6047 77° East 516 594 37,000  Level Los Angeles Center
Fri 03:36:54 AM 33.1911 -119.4347 78° East 522 601 37,000  Level Los Angeles Center
Fri 03:37:54 AM 33.2253 -119.2447 77° East 522 601 37,000  Level Los Angeles Center
Fri 03:38:54 AM 33.2567 -119.0769 78° East 522 601 37,000  Level Los Angeles Center
Fri 03:39:54 AM 33.2858 -118.9067 77° East 522 601 37,000  Level Los Angeles Center
Fri 03:40:54 AM 33.3186 -118.7336 79° East 522 601 37,000  Level Los Angeles Center
Fri 03:41:54 AM 33.3472 -118.5631 78° East 522 601 37,000  Level Los Angeles Center
Fri 03:42:54 AM 33.3778 -118.3872 81° East 522 601 37,000  Level Los Angeles Center
Fri 03:43:54 AM 33.3997 -118.2136 81° East 522 601 37,000  Level Los Angeles Center
Fri 03:44:54 AM 33.4233 -118.0400 80° East 527 606 37,000  Level Los Angeles Center
Fri 03:45:54 AM 33.4492 -117.8639 81° East 527 606 37,000  Level Los Angeles Center
Fri 03:46:54 AM 33.4722 -117.6900 81° East 527 606 37,000  Level Los Angeles Center
Fri 03:47:54 AM 33.4908 -117.5458 80° East 527 606 37,000  Level Los Angeles Center
Fri 03:48:54 AM 33.5178 -117.3544 81° East 527 606 37,000  Level Los Angeles Center
Fri 03:49:54 AM 33.5428 -117.1631 81° East 527 606 37,000  Level Los Angeles Center
Fri 03:50:54 AM 33.5669 -116.9861 82° East 527 606 37,000  Level Los Angeles Center
Fri 03:51:54 AM 33.5869 -116.8069 82° East 532 612 37,000  Level Los Angeles Center
Fri 03:52:54 AM 33.6044 -116.6525 81° East 532 612 37,000  Level Los Angeles Center
Fri 03:53:54 AM 33.6281 -116.4731 82° East 532 612 37,000  Level Los Angeles Center
Fri 03:54:54 AM 33.6492 -116.2958 82° East 537 618 37,000  Level Los Angeles Center
Fri 03:55:54 AM 33.6703 -116.1211 83° East 537 618 37,000  Level Los Angeles Center
Fri 03:56:54 AM 33.6889 -115.9414 82° East 537 618 37,000  Level Los Angeles Center
Fri 03:57:54 AM 33.7094 -115.7617 81° East 537 618 37,000  Level Los Angeles Center
Fri 03:58:54 AM 33.7317 -115.5867 83° East 537 618 37,000  Level Los Angeles Center
Fri 03:59:54 AM 33.7497 -115.4067 83° East 542 624 37,000  Level Los Angeles Center
Fri 04:00:54 AM 33.7692 -115.2267 83° East 542 624 37,000  Level Los Angeles Center
Fri 04:01:54 AM 33.7886 -115.0464 83° East 542 624 37,000  Level Los Angeles Center
Fri 04:02:54 AM 33.8058 -114.8689 82° East 542 624 37,000  Level Los Angeles Center
Fri 04:03:54 AM 33.8267 -114.6908 83° East 542 624 37,000  Level Los Angeles Center
Fri 04:04:54 AM 33.8456 -114.5106 84° East 542 624 37,000  Level Los Angeles Center
Fri 04:06:35 AM 33.8725 -114.1914 83° East 531 611 37,000  Level Albuquerque Center
Fri 04:07:35 AM 33.8908 -114.0128 82° East 536 617 37,000  Level Albuquerque Center
Fri 04:08:35 AM 33.9111 -113.8369 82° East 536 617 37,000  Level Albuquerque Center
Fri 04:09:35 AM 33.9308 -113.6583 84° East 536 617 37,000  Level Albuquerque Center
Fri 04:10:35 AM 33.9464 -113.4792 84° East 536 617 37,000  Level Albuquerque Center
Fri 04:11:35 AM 33.9608 -113.3200 83° East 536 617 37,000  Level Albuquerque Center
Fri 04:12:35 AM 33.9781 -113.1383 83° East 536 617 37,000  Level Albuquerque Center
Fri 04:13:35 AM 33.9947 -112.9617 84° East 536 617 37,000  Level Albuquerque Center
Fri 04:14:35 AM 34.0114 -112.7825 83° East 536 617 37,000  Level Albuquerque Center
Fri 04:15:35 AM 34.0328 -112.5808 84° East 536 617 37,000  Level Albuquerque Center
Fri 04:16:35 AM 34.0486 -112.4064 85° East 531 611 37,000  Level Albuquerque Center
Fri 04:17:35 AM 34.0625 -112.2269 91° East 536 617 37,000  Level Albuquerque Center
Fri 04:18:35 AM 34.0592 -112.0461 91° East 536 617 37,000  Level Albuquerque Center
Fri 04:19:35 AM 34.0572 -111.8831 90° East 536 617 37,000  Level Albuquerque Center
Fri 04:20:35 AM 34.0558 -111.6900 91° East 536 617 37,000  Level Albuquerque Center
Fri 04:21:35 AM 34.0533 -111.5319 90° East 536 617 37,000  Level Albuquerque Center
Fri 04:22:35 AM 34.0525 -111.3717 91° East 530 610 37,000  Level Albuquerque Center
Fri 04:23:35 AM 34.0483 -111.1808 89° East 530 610 37,000  Level Albuquerque Center
Fri 04:24:35 AM 34.0503 -110.9856 90° East 525 604 37,000  Level Albuquerque Center
Fri 04:25:35 AM 34.0492 -110.8100 93° East 525 604 37,000  Level Albuquerque Center
Fri 04:26:35 AM 34.0431 -110.6492 91° East 520 598 37,000  Level Albuquerque Center
Fri 04:27:35 AM 34.0394 -110.4736 90° East 520 598 37,000  Level Albuquerque Center
Fri 04:28:35 AM 34.0397 -110.2983 82° East 520 598 37,000  Level Albuquerque Center
Fri 04:29:35 AM 34.0606 -110.1211 83° East 520 598 37,000  Level Albuquerque Center
Fri 04:30:35 AM 34.0772 -109.9461 83° East 520 598 37,000  Level Albuquerque Center
Fri 04:31:35 AM 34.0958 -109.7536 83° East 525 604 37,000  Level Albuquerque Center
Fri 04:32:35 AM 34.1136 -109.5761 85° East 519 597 37,000  Level Albuquerque Center
Fri 04:33:35 AM 34.1272 -109.4008 93° East 519 597 37,000  Level Albuquerque Center
Fri 04:34:35 AM 34.1197 -109.2250 93° East 519 597 37,000  Level Albuquerque Center
Fri 04:35:35 AM 34.1119 -109.0517 92° East 519 597 37,000  Level Albuquerque Center
Fri 04:36:35 AM 34.1058 -108.8786 93° East 519 597 37,000  Level Albuquerque Center
Fri 04:37:35 AM 34.0975 -108.7028 92° East 519 597 37,000  Level Albuquerque Center
Fri 04:38:35 AM 34.0911 -108.5272 93° East 519 597 37,000  Level Albuquerque Center
Fri 04:39:35 AM 34.0822 -108.3517 94° East 519 597 37,000  Level Albuquerque Center
Fri 04:40:35 AM 34.0731 -108.1736 95° East 519 597 37,000  Level Albuquerque Center
Fri 04:41:35 AM 34.0617 -108.0078 93° East 508 585 37,000  Level Albuquerque Center
Fri 04:42:35 AM 34.0542 -107.8322 94° East 513 590 37,000  Level Albuquerque Center
Fri 04:43:35 AM 34.0442 -107.6794 93° East 520 598 37,000  Level Albuquerque Center
Fri 04:44:35 AM 34.0361 -107.5014 93° East 520 598 37,000  Level Albuquerque Center
Fri 04:45:35 AM 34.0278 -107.3286 93° East 520 598 37,000  Level Albuquerque Center
Fri 04:46:35 AM 34.0194 -107.1533 93° East 520 598 37,000  Level Albuquerque Center
Fri 04:47:35 AM 34.0106 -106.9778 94° East 515 593 37,000  Level Albuquerque Center
Fri 04:48:35 AM 33.9994 -106.8025 94° East 521 600 37,000  Level Albuquerque Center
Fri 04:49:35 AM 33.9903 -106.6347 95° East 513 590 37,000  Level Albuquerque Center
Fri 04:50:35 AM 33.9786 -106.4597 94° East 513 590 37,000  Level Albuquerque Center
Fri 04:51:35 AM 33.9689 -106.2844 94° East 518 596 37,000  Level Albuquerque Center
Fri 04:52:35 AM 33.9586 -106.1069 94° East 518 596 37,000  Level Albuquerque Center
Fri 04:53:35 AM 33.9486 -105.9392 95° East 513 590 37,000  Level Albuquerque Center
Fri 04:54:35 AM 33.9336 -105.7442 95° East 513 590 37,000  Level Albuquerque Center
Fri 04:55:35 AM 33.9206 -105.5719 95° East 518 596 37,000  Level Albuquerque Center
Fri 04:56:35 AM 33.9100 -105.4194 95° East 518 596 37,000  Level Albuquerque Center
Fri 04:57:35 AM 33.8964 -105.2322 94° East 518 596 37,000  Level Albuquerque Center
Fri 04:58:35 AM 33.8847 -105.0547 96° East 520 598 37,000  Level Albuquerque Center
Fri 04:59:35 AM 33.8708 -104.8875 95° East 520 598 37,000  Level Albuquerque Center
Fri 05:00:35 AM 33.8589 -104.7131 94° East 515 593 37,000  Level Albuquerque Center
Fri 05:01:35 AM 33.8486 -104.5433 95° East 515 593 37,000  Level Albuquerque Center
Fri 05:03:20 AM 33.8267 -104.2711 96° East 521 600 37,000  Level Fort Worth Center
Fri 05:04:19 AM 33.8128 -104.1050 96° East 504 580 37,000  Level Fort Worth Center
Fri 05:05:18 AM 33.7986 -103.9364 94° East 498 573 37,000  Level Fort Worth Center
Fri 05:06:18 AM 33.7886 -103.7708 97° East 498 573 37,000  Level Fort Worth Center
Fri 05:07:20 AM 33.7714 -103.6122 95° East 498 573 37,000  Level Fort Worth Center
Fri 05:08:19 AM 33.7589 -103.4442 95° East 499 574 37,000  Level Fort Worth Center
Fri 05:09:18 AM 33.7467 -103.2608 97° East 506 582 37,000  Level Fort Worth Center
Fri 05:10:19 AM 33.7311 -103.1000 97° East 496 571 37,000  Level Fort Worth Center
Fri 05:11:18 AM 33.7136 -102.9292 97° East 502 578 37,000  Level Fort Worth Center
Fri 05:12:18 AM 33.6992 -102.7808 97° East 502 578 37,000  Level Fort Worth Center
Fri 05:13:20 AM 33.6797 -102.5975 96° East 502 578 37,000  Level Fort Worth Center
Fri 05:14:17 AM 33.6672 -102.4447 97° East 502 578 37,000  Level Fort Worth Center
Fri 05:15:18 AM 33.6494 -102.2639 96° East 507 583 37,000  Level Fort Worth Center
Fri 05:16:17 AM 33.6364 -102.1111 96° East 507 583 37,000  Level Fort Worth Center
Fri 05:17:20 AM 33.6219 -101.9383 98° East 509 586 37,000  Level Fort Worth Center
Fri 05:18:17 AM 33.6028 -101.7703 102° East 514 592 37,000  Level Fort Worth Center
Fri 05:19:17 AM 33.5697 -101.5817 100° East 524 603 37,000  Level Fort Worth Center
Fri 05:20:20 AM 33.5456 -101.4258 102° East 524 603 37,000  Level Fort Worth Center
Fri 05:21:19 AM 33.5119 -101.2350 101° East 524 603 37,000  Level Fort Worth Center
Fri 05:22:18 AM 33.4872 -101.0797 101° East 531 611 37,000  Level Fort Worth Center
Fri 05:23:20 AM 33.4608 -100.9117 101° East 526 605 37,000  Level Fort Worth Center
Fri 05:24:17 AM 33.4319 -100.7389 101° East 526 605 37,000  Level Fort Worth Center
Fri 05:25:18 AM 33.4033 -100.5636 102° East 526 605 37,000  Level Fort Worth Center
Fri 05:26:17 AM 33.3739 -100.3933 102° East 526 605 37,000  Level Fort Worth Center
Fri 05:27:20 AM 33.3444 -100.2233 101° East 526 605 37,000  Level Fort Worth Center
Fri 05:28:19 AM 33.3131 -100.0383 102° East 526 605 37,000  Level Fort Worth Center
Fri 05:29:17 AM 33.2831 -99.8686 96° East 521 600 37,000  Level Fort Worth Center
Fri 05:30:24 AM 33.2661 -99.6800 102° East 514 592 37,000  Level FlightAware ADS-B
Fri 05:31:47 AM 33.2254 -99.4501 102° East 513 590 37,000  Level FlightAware ADS-B
Fri 05:32:21 AM 33.2084 -99.3550 102° East 514 592 37,000  Level FlightAware ADS-B
Fri 05:32:52 AM 33.1935 -99.2720 102° East 514 592 37,000 -689 Level FlightAware ADS-B
Fri 05:33:22 AM 33.1784 -99.1879 102° East 512 589 36,300 -2,366 Descending FlightAware ADS-B
Fri 05:34:03 AM 33.1579 -99.0754 102° East 516 594 34,200 -3,073 Descending FlightAware ADS-B
Fri 05:34:44 AM 33.1372 -98.9616 115° Southeast 515 593 32,100 -2,883 Descending FlightAware ADS-B
Fri 05:35:20 AM 33.1006 -98.8667 103° East 510 587 30,500 -3,161 Descending Fort Worth Center
Fri 05:36:17 AM 33.0689 -98.7025 102° East 510 587 27,200 -3,026 Descending Fort Worth Center
Fri 05:37:17 AM 33.0411 -98.5433 103° East 505 581 24,600 -3,000 Descending Fort Worth Center
Fri 05:38:17 AM 33.0111 -98.3894 104° East 488 562 21,200 -3,223 Descending Fort Worth Center
Fri 05:39:18 AM 32.9850 -98.2603 100° East 454 522 18,100 -3,128 Descending Fort Worth Center
Fri 05:40:14 AM 32.9631 -98.1175 104° East 426 490 15,100 -2,784 Descending FAA TRACON SMA TRACON (SMA)
Fri 05:40:55 AM 32.9442 -98.0250 103° East 414 476 13,600 -1,725 Descending FAA TRACON SMA TRACON (SMA)
Fri 05:41:34 AM 32.9286 -97.9442 104° East 408 470 12,800 -1,747 Descending FAA TRACON SMA TRACON (SMA)
Fri 05:42:14 AM 32.9100 -97.8542 105° East 403 464 11,300 -1,350 Descending FAA TRACON SMA TRACON (SMA)
Fri 05:42:54 AM 32.8897 -97.7667 110° East 397 457 11,000 -370 Descending FAA TRACON SMA TRACON (SMA)
Fri 05:43:35 AM 32.8661 -97.6914 113° Southeast 395 455 10,800 -525 Descending FAA TRACON SMA TRACON (SMA)
Fri 05:44:14 AM 32.8389 -97.6144 109° East 362 417 10,300 -608 Descending FAA TRACON SMA TRACON (SMA)
Fri 05:44:54 AM 32.8172 -97.5414 99° East 336 387 10,000 -975 Descending FAA TRACON SMA TRACON (SMA)
Fri 05:45:34 AM 32.8089 -97.4800 100° East 308 354 9,000 -1,778 Descending FAA TRACON SMA TRACON (SMA)
Fri 05:46:15 AM 32.7989 -97.4122 99° East 300 345 7,600 -1,926 Descending FAA TRACON SMA TRACON (SMA)
Fri 05:46:55 AM 32.7903 -97.3500 98° East 273 314 6,400 -1,443 Descending FAA TRACON SMA TRACON (SMA)
Fri 05:47:34 AM 32.7839 -97.2989 98° East 253 291 5,700 -987 Descending FAA TRACON SMA TRACON (SMA)
Fri 05:48:14 AM 32.7772 -97.2453 100° East 235 270 5,100 -750 Descending FAA TRACON SMA TRACON (SMA)
Fri 05:48:54 AM 32.7703 -97.1964 115° Southeast 212 244 4,700 -741 Descending FAA TRACON SMA TRACON (SMA)
Fri 05:49:35 AM 32.7550 -97.1581 109° East 188 216 4,100 -975 Descending FAA TRACON SMA TRACON (SMA)
Fri 05:50:14 AM 32.7456 -97.1247 76° East 182 209 3,400 -987 Descending FAA TRACON SMA TRACON (SMA)
Fri 05:50:54 AM 32.7536 -97.0864 50° Northeast 172 198 2,800 -815 Descending FAA TRACON SMA TRACON (SMA)
Fri 05:51:35 AM 32.7739 -97.0581 50° Northeast 163 188 2,300 -732 Descending FAA TRACON SMA TRACON (SMA)

Login

Don't have an account? Register now (free) for customized features, flight alerts, and more!